Akashi — JM6695 — position and weather

sailwx.info

Track history (hours):
 
Tides and Currents Weather Stations Pressure Air Temp Water Temp Dewpoint Dewpoint Depression Visibility Wind Speed Wind Dir Waves Ship Positions

Akashi

Last reported at 2018-Feb-23 05:25 UTC. Time now 2018-Feb-23 08:53 UTC.
Position N 34°46' E 134°36'.

Length 75 m; draft 5 m.

Type: Cargo ship. MMSI: 431301627.

Date/timePositionNaut miles runAvg speedWind from/ knotsBaromVisibWave heightAir tempDewpointWater temp
2018-Feb-23 05:25N 34°46' E 134°36'1 2.9
2018-Feb-23 04:59N 34°45' E 134°37'511.3
2018-Feb-23 04:30N 34°43' E 134°43'611.8
2018-Feb-23 04:00N 34°39' E 134°49'612.5
2018-Feb-23 03:30N 34°37' E 134°56'612.2
2018-Feb-23 03:00N 34°37' E 135°03'611.3
2018-Feb-23 02:30N 34°37' E 135°10'5 9.7
2018-Feb-23 02:00N 34°39' E 135°15'0 0.8
2018-Feb-23 01:28N 34°39' E 135°15'0 0.0
2018-Feb-23 00:58N 34°39' E 135°15'0 0.0
2018-Feb-23 00:29N 34°39' E 135°15'2 4.2
2018-Feb-23 00:01N 34°41' E 135°16'0 0.9
2018-Feb-22 23:30N 34°41' E 135°17'1 1.7
2018-Feb-22 23:00N 34°41' E 135°16'2 4.0
2018-Feb-22 22:28N 34°39' E 135°15'0 0.0
2018-Feb-22 21:58N 34°39' E 135°15'0 0.0
2018-Feb-22 21:25N 34°39' E 135°15'0 0.0
2018-Feb-22 20:58N 34°39' E 135°15'0 0.1
2018-Feb-22 20:25N 34°38' E 135°15'0 0.0
2018-Feb-22 19:58N 34°38' E 135°15'0 0.0
2018-Feb-22 19:28N 34°38' E 135°15'0 0.0
2018-Feb-22 18:58N 34°38' E 135°15'0 0.0
2018-Feb-22 18:28N 34°38' E 135°15'0 0.0
2018-Feb-22 17:58N 34°38' E 135°15'0 0.0
2018-Feb-22 17:28N 34°38' E 135°15'0 0.0
2018-Feb-22 16:58N 34°38' E 135°15'0 0.0
2018-Feb-22 16:28N 34°38' E 135°15'0 0.0
2018-Feb-22 15:58N 34°38' E 135°15'0 0.0
2018-Feb-22 15:28N 34°38' E 135°15'1 1.4
2018-Feb-22 15:01N 34°38' E 135°15'611.0
2018-Feb-22 14:30N 34°36' E 135°08'510.0
2018-Feb-22 14:01N 34°36' E 135°02'5 9.4
2018-Feb-22 13:30N 34°36' E 134°57'611.4
2018-Feb-22 13:00N 34°34' E 134°50'611.7
2018-Feb-22 12:30N 34°31' E 134°44'611.8
2018-Feb-22 12:00N 34°29' E 134°37'611.9
2018-Feb-22 11:30N 34°27' E 134°30'611.7
2018-Feb-22 10:58N 34°25' E 134°23'911.6
2018-Feb-22 10:10N 34°24' E 134°12'4 0.2
2018-Feb-21 14:20N 34°26' E 134°08'413.2
2018-Feb-21 14:00N 34°25' E 134°13'612.9
2018-Feb-21 13:30N 34°25' E 134°21'612.6
2018-Feb-21 13:00N 34°27' E 134°28'612.5
2018-Feb-21 12:30N 34°29' E 134°35'612.4
2018-Feb-21 12:01N 34°32' E 134°42'612.0
2018-Feb-21 11:31N 34°34' E 134°48'611.7
2018-Feb-21 11:01N 34°36' E 134°55'510.2
2018-Feb-21 10:30N 34°37' E 135°01'5 9.6
2018-Feb-21 10:01N 34°36' E 135°06'611.7
2018-Feb-21 09:30N 34°37' E 135°13'3 5.2
2018-Feb-21 09:00N 34°40' E 135°14'0 0.0
2018-Feb-21 08:30N 34°40' E 135°14'0 0.0
2018-Feb-21 08:00N 34°40' E 135°14'0 0.0
2018-Feb-21 07:30N 34°40' E 135°14'2 4.4
2018-Feb-21 07:00N 34°39' E 135°16'611.7
2018-Feb-21 06:31N 34°38' E 135°23'1 2.9
2018-Feb-21 06:00N 34°38' E 135°25'0 0.0
2018-Feb-21 05:30N 34°38' E 135°25'3 6.0
2018-Feb-21 05:00N 34°39' E 135°22'1 1.7
2018-Feb-21 04:30N 34°39' E 135°21'0 0.0
2018-Feb-21 04:00N 34°39' E 135°21'0 0.0
2018-Feb-21 03:30N 34°39' E 135°21'0 0.0
2018-Feb-21 03:00N 34°39' E 135°21'0 0.1
2018-Feb-21 02:27N 34°39' E 135°21'4 9.0
2018-Feb-21 02:00N 34°38' E 135°16'1 2.5
2018-Feb-21 01:29N 34°39' E 135°15'0 0.0
2018-Feb-21 01:00N 34°39' E 135°15'1 1.1
2018-Feb-21 00:30N 34°40' E 135°15'1 2.4
2018-Feb-20 23:59N 34°41' E 135°15'0 0.0
2018-Feb-20 23:30N 34°41' E 135°15'2 3.8
2018-Feb-20 23:00N 34°39' E 135°15'1 1.3
2018-Feb-20 22:30N 34°39' E 135°15'0 0.0
2018-Feb-20 22:00N 34°39' E 135°15'0 0.0
2018-Feb-20 21:30N 34°39' E 135°15'0 0.0
2018-Feb-20 21:00N 34°39' E 135°15'0 0.1
2018-Feb-20 20:30N 34°39' E 135°15'0 0.0
2018-Feb-20 20:00N 34°39' E 135°15'0 0.1
2018-Feb-20 19:30N 34°39' E 135°15'0 0.0
2018-Feb-20 19:00N 34°39' E 135°15'0 0.1
2018-Feb-20 18:30N 34°39' E 135°15'0 0.0
2018-Feb-20 18:00N 34°39' E 135°15'0 0.0
2018-Feb-20 17:30N 34°39' E 135°15'0 0.1
2018-Feb-20 17:00N 34°39' E 135°15'3 6.7
2018-Feb-20 16:30N 34°37' E 135°11'510.7
2018-Feb-20 16:00N 34°35' E 135°05'5 9.9
2018-Feb-20 15:30N 34°37' E 135°00'510.5
2018-Feb-20 15:00N 34°35' E 134°54'4 9.1
2018-Feb-20 14:30N 34°33' E 134°49'510.1
2018-Feb-20 14:00N 34°31' E 134°43'510.7
2018-Feb-20 13:31N 34°29' E 134°37'510.8
2018-Feb-20 13:00N 34°27' E 134°31'611.0
2018-Feb-20 12:29N 34°25' E 134°25'1110.4
2018-Feb-20 11:26N 34°25' E 134°12'3 0.1
2018-Feb-19 13:02N 34°26' E 134°09'113.6
2018-Feb-19 12:57N 34°25' E 134°10'612.7
2018-Feb-19 12:30N 34°24' E 134°17'612.2
2018-Feb-19 11:59N 34°26' E 134°24'612.1
2018-Feb-19 11:30N 34°28' E 134°31'612.0
2018-Feb-19 11:00N 34°30' E 134°38'611.8
2018-Feb-19 10:30N 34°32' E 134°44'611.6
2018-Feb-19 10:01N 34°35' E 134°51'510.8
2018-Feb-19 09:30N 34°37' E 134°57'4 8.6
2018-Feb-19 09:00N 34°37' E 135°02'5 9.2
2018-Feb-19 08:30N 34°36' E 135°08'611.8
2018-Feb-19 08:00N 34°38' E 135°15'2 4.6
2018-Feb-19 07:30N 34°40' E 135°14'0 0.0
2018-Feb-19 07:01N 34°40' E 135°14'2 3.5
2018-Feb-19 06:30N 34°39' E 135°16'511.0
2018-Feb-19 06:01N 34°38' E 135°23'2 4.0
2018-Feb-19 05:28N 34°38' E 135°25'1 1.5
2018-Feb-19 05:00N 34°37' E 135°24'3 6.2
2018-Feb-19 04:31N 34°39' E 135°21'3 5.6
2018-Feb-19 04:00N 34°41' E 135°18'1 2.4
2018-Feb-19 03:30N 34°41' E 135°17'0 0.0
2018-Feb-19 03:01N 34°41' E 135°17'0 0.4
2018-Feb-19 02:31N 34°41' E 135°16'1 1.7
2018-Feb-19 02:00N 34°40' E 135°15'0 0.0
2018-Feb-19 01:31N 34°40' E 135°15'0 0.3
2018-Feb-19 01:00N 34°40' E 135°16'1 2.9
2018-Feb-19 00:30N 34°39' E 135°15'0 0.0
2018-Feb-19 00:00N 34°39' E 135°15'0 0.0
2018-Feb-18 23:30N 34°39' E 135°15'1 2.7
2018-Feb-18 23:00N 34°41' E 135°14'1 2.6
2018-Feb-18 22:29N 34°41' E 135°13'0 0.0
2018-Feb-18 21:59N 34°41' E 135°13'0 0.0
2018-Feb-18 21:29N 34°41' E 135°13'0 0.0
2018-Feb-18 20:59N 34°41' E 135°13'0 0.0
2018-Feb-18 20:29N 34°41' E 135°13'0 0.0
2018-Feb-18 19:59N 34°41' E 135°13'0 0.0
2018-Feb-18 19:29N 34°41' E 135°13'0 0.0
2018-Feb-18 18:59N 34°41' E 135°13'0 0.0
2018-Feb-18 18:29N 34°41' E 135°13'0 0.0
2018-Feb-18 17:59N 34°41' E 135°13'0 0.0
2018-Feb-18 17:29N 34°41' E 135°13'0 0.0
2018-Feb-18 16:59N 34°41' E 135°13'0 0.0
2018-Feb-18 16:29N 34°41' E 135°13'0 0.0
2018-Feb-18 15:59N 34°41' E 135°13'0 0.0
2018-Feb-18 15:29N 34°41' E 135°13'0 0.0
2018-Feb-18 14:59N 34°41' E 135°13'0 0.0
2018-Feb-18 14:29N 34°41' E 135°13'0 0.0
2018-Feb-18 13:59N 34°41' E 135°13'0 0.0
2018-Feb-18 13:29N 34°41' E 135°13'0 0.0
2018-Feb-18 12:59N 34°41' E 135°13'0 0.0
2018-Feb-18 12:29N 34°41' E 135°13'0 0.0
2018-Feb-18 11:59N 34°41' E 135°13'0 0.0
2018-Feb-18 11:29N 34°41' E 135°13'0 0.0
2018-Feb-18 10:59N 34°41' E 135°13'0 0.0
2018-Feb-18 10:29N 34°41' E 135°13'0 0.0
2018-Feb-18 09:59N 34°41' E 135°13'0 0.0
2018-Feb-18 09:29N 34°41' E 135°13'0 0.0
2018-Feb-18 08:59N 34°41' E 135°13'0 0.0
2018-Feb-18 08:29N 34°41' E 135°13'0 0.0
2018-Feb-18 07:59N 34°41' E 135°13'0 0.0
2018-Feb-18 07:29N 34°41' E 135°13'0 0.0
2018-Feb-18 06:59N 34°41' E 135°13'0 0.0
2018-Feb-18 06:29N 34°41' E 135°13'0 0.0
2018-Feb-18 05:59N 34°41' E 135°13'0 0.0
2018-Feb-18 05:26N 34°41' E 135°13'0 0.0
2018-Feb-18 04:59N 34°41' E 135°13'0 0.0
2018-Feb-18 04:29N 34°41' E 135°13'0 0.0
2018-Feb-18 03:59N 34°41' E 135°13'0 0.0
2018-Feb-18 03:29N 34°41' E 135°13'0 0.0
2018-Feb-18 02:59N 34°41' E 135°13'0 0.0
2018-Feb-18 02:29N 34°41' E 135°13'0 0.8
2018-Feb-18 02:00N 34°41' E 135°13'4 7.3
2018-Feb-18 01:31N 34°38' E 135°15'510.7
2018-Feb-18 01:00N 34°35' E 135°09'5 9.4
2018-Feb-18 00:30N 34°36' E 135°03'3 6.5
2018-Feb-18 00:00N 34°37' E 134°60'4 8.4
2018-Feb-17 23:30N 34°35' E 134°55'4 8.5
2018-Feb-17 23:00N 34°34' E 134°50'510.2
2018-Feb-17 22:30N 34°32' E 134°44'510.7
2018-Feb-17 22:00N 34°30' E 134°38'511.0
2018-Feb-17 21:30N 34°28' E 134°32'611.0
2018-Feb-17 20:58N 34°25' E 134°26'511.0
2018-Feb-17 20:29N 34°24' E 134°19'611.7
2018-Feb-17 19:56N 34°25' E 134°12'8111.4
2018-Feb-17 12:52N 34°01' E 132°38'512.1
2018-Feb-17 12:27N 33°58' E 132°34'1312.2
2018-Feb-17 11:22N 33°50' E 132°21'1511.4
2018-Feb-17 10:05N 33°45' E 132°04'111.2
2018-Feb-17 10:01N 33°45' E 132°03'510.3
2018-Feb-17 09:30N 33°49' E 131°58'810.9
2018-Feb-17 08:45N 33°54' E 131°51'311.0
2018-Feb-17 08:30N 33°56' E 131°48'5 9.5
2018-Feb-17 08:00N 33°60' E 131°45'3 2.8
2018-Feb-17 06:59N 34°02' E 131°47'4 7.8
2018-Feb-17 06:26N 33°58' E 131°45'510.7
2018-Feb-17 05:59N 33°55' E 131°49'1410.4
2018-Feb-17 04:36N 33°46' E 132°03'111.2
2018-Feb-17 04:30N 33°46' E 132°04'811.7
2018-Feb-17 03:51N 33°52' E 132°10'1211.1
2018-Feb-17 02:49N 34°03' E 132°15'412.1
2018-Feb-17 02:28N 34°07' E 132°17'511.3
2018-Feb-17 02:00N 34°12' E 132°16'2 3.4
2018-Feb-17 01:26N 34°13' E 132°15'0 0.0
2018-Feb-17 00:53N 34°13' E 132°15'0 0.0
2018-Feb-17 00:26N 34°13' E 132°15'0 0.0
2018-Feb-16 23:56N 34°13' E 132°15'0 0.0
2018-Feb-16 23:23N 34°13' E 132°15'0 0.0
2018-Feb-16 22:56N 34°13' E 132°15'0 0.0
2018-Feb-16 22:30N 34°13' E 132°15'1 1.6
2018-Feb-16 22:00N 34°13' E 132°16'0 0.0
2018-Feb-16 21:30N 34°13' E 132°16'2 4.0
2018-Feb-16 21:00N 34°12' E 132°17'611.2
2018-Feb-16 20:30N 34°08' E 132°22'911.1
2018-Feb-16 19:41N 34°02' E 132°31'210.7
2018-Feb-16 19:31N 34°02' E 132°33'611.8
2018-Feb-16 18:59N 34°05' E 132°39'7510.7
2018-Feb-16 12:00N 34°32' E 134°04'812.5
2018-Feb-16 11:22N 34°35' E 134°12'612.1
2018-Feb-16 10:54N 34°38' E 134°18'611.7
2018-Feb-16 10:22N 34°41' E 134°25'511.3
2018-Feb-16 09:57N 34°43' E 134°30'511.2
2018-Feb-16 09:30N 34°44' E 134°36'3 1.7
2018-Feb-16 07:49N 34°46' E 134°36'0 0.0
2018-Feb-16 06:53N 34°46' E 134°36'1 2.4
2018-Feb-16 06:29N 34°46' E 134°37'510.7
2018-Feb-16 06:00N 34°43' E 134°42'510.5
2018-Feb-16 05:30N 34°40' E 134°48'5 9.3
2018-Feb-16 05:01N 34°38' E 134°53'4 8.7
2018-Feb-16 04:31N 34°38' E 134°58'5 9.2
2018-Feb-16 04:00N 34°36' E 135°03'510.9
2018-Feb-16 03:30N 34°37' E 135°10'510.3
2018-Feb-16 03:01N 34°39' E 135°15'2 4.0
2018-Feb-16 02:31N 34°41' E 135°17'0 0.0
2018-Feb-16 02:00N 34°41' E 135°17'2 3.8
2018-Feb-16 01:30N 34°40' E 135°15'1 1.0
2018-Feb-16 00:59N 34°39' E 135°15'0 0.0
2018-Feb-16 00:30N 34°39' E 135°15'2 3.6
2018-Feb-16 00:00N 34°41' E 135°16'0 0.0
2018-Feb-15 23:30N 34°41' E 135°16'0 0.3
2018-Feb-15 23:00N 34°41' E 135°15'2 3.6
2018-Feb-15 22:31N 34°39' E 135°15'0 0.0
2018-Feb-15 22:01N 34°39' E 135°15'0 0.0
2018-Feb-15 21:30N 34°39' E 135°15'0 0.0
2018-Feb-15 20:58N 34°39' E 135°15'0 0.0
2018-Feb-15 20:28N 34°39' E 135°15'0 0.0
2018-Feb-15 20:00N 34°39' E 135°15'0 0.0
2018-Feb-15 19:30N 34°39' E 135°15'0 0.1
2018-Feb-15 18:58N 34°39' E 135°15'0 0.0
2018-Feb-15 18:28N 34°39' E 135°15'0 0.0
2018-Feb-15 18:01N 34°39' E 135°15'0 0.1
2018-Feb-15 17:28N 34°39' E 135°15'0 0.1
2018-Feb-15 17:01N 34°39' E 135°15'3 6.7
2018-Feb-15 16:30N 34°37' E 135°12'611.4
2018-Feb-15 16:01N 34°35' E 135°05'713.1
2018-Feb-15 15:31N 34°36' E 134°58'612.6
2018-Feb-15 15:00N 34°34' E 134°51'611.3
2018-Feb-15 14:30N 34°32' E 134°44'510.9
2018-Feb-15 14:01N 34°30' E 134°38'510.6
2018-Feb-15 13:30N 34°28' E 134°32'710.6
2018-Feb-15 12:50N 34°25' E 134°24'13 0.6
2018-Feb-14 14:09N 34°26' E 134°08'210.6
2018-Feb-14 14:00N 34°26' E 134°10'611.0
2018-Feb-14 13:30N 34°24' E 134°16'611.5
2018-Feb-14 13:01N 34°25' E 134°23'612.0
2018-Feb-14 12:30N 34°27' E 134°30'611.8
2018-Feb-14 12:00N 34°30' E 134°36'612.0
2018-Feb-14 11:30N 34°32' E 134°43'612.5
2018-Feb-14 11:00N 34°34' E 134°50'713.2
2018-Feb-14 10:30N 34°37' E 134°57'612.5
2018-Feb-14 10:00N 34°36' E 135°05'611.7
2018-Feb-14 09:30N 34°36' E 135°12'611.5
2018-Feb-14 09:00N 34°37' E 135°19'611.1
2018-Feb-14 08:30N 34°39' E 135°25'1 1.3
2018-Feb-14 07:59N 34°39' E 135°26'0 0.1
2018-Feb-14 07:30N 34°39' E 135°26'2 4.5
2018-Feb-14 07:01N 34°38' E 135°23'611.7
2018-Feb-14 06:30N 34°39' E 135°16'2 3.3
2018-Feb-14 05:59N 34°40' E 135°14'0 0.8
2018-Feb-14 05:30N 34°40' E 135°14'0 0.0
2018-Feb-14 04:59N 34°40' E 135°14'2 4.1
2018-Feb-14 04:30N 34°41' E 135°16'0 0.5
2018-Feb-14 03:55N 34°41' E 135°17'0 0.0
2018-Feb-14 03:28N 34°41' E 135°17'0 0.0
2018-Feb-14 02:58N 34°41' E 135°17'0 0.0
2018-Feb-14 02:28N 34°41' E 135°17'0 0.0
2018-Feb-14 01:59N 34°41' E 135°17'0 0.3
2018-Feb-14 01:31N 34°41' E 135°17'1 2.9
2018-Feb-14 01:00N 34°40' E 135°15'1 2.3
2018-Feb-14 00:30N 34°39' E 135°15'0 0.0
2018-Feb-13 23:59N 34°39' E 135°15'0 0.0
2018-Feb-13 23:29N 34°39' E 135°15'0 0.0
2018-Feb-13 22:59N 34°39' E 135°15'0 0.0
2018-Feb-13 22:29N 34°39' E 135°15'0 0.0
2018-Feb-13 21:59N 34°39' E 135°15'0 0.0
2018-Feb-13 21:29N 34°39' E 135°15'0 0.1
2018-Feb-13 20:59N 34°39' E 135°15'0 0.0
2018-Feb-13 20:29N 34°39' E 135°15'0 0.0
2018-Feb-13 19:59N 34°39' E 135°15'0 0.0
2018-Feb-13 19:29N 34°39' E 135°15'0 0.0
2018-Feb-13 18:59N 34°39' E 135°15'0 0.0
2018-Feb-13 18:29N 34°39' E 135°15'0 0.0
2018-Feb-13 17:59N 34°39' E 135°15'0 0.0
2018-Feb-13 17:29N 34°39' E 135°15'0 0.0
2018-Feb-13 16:59N 34°39' E 135°15'0 0.0
2018-Feb-13 16:29N 34°39' E 135°15'2 4.0
2018-Feb-13 16:00N 34°37' E 135°13'611.9
2018-Feb-13 15:30N 34°35' E 135°07'713.1
2018-Feb-13 15:00N 34°37' E 134°59'713.6
2018-Feb-13 14:31N 34°34' E 134°52'612.4
2018-Feb-13 14:01N 34°32' E 134°45'611.9
2018-Feb-13 13:31N 34°30' E 134°38'611.5
2018-Feb-13 13:01N 34°27' E 134°32'611.5
2018-Feb-13 12:30N 34°25' E 134°25'1011.1
2018-Feb-13 11:34N 34°24' E 134°12'  
Track history (hours):
 
Tides and Currents Weather Stations Pressure Air Temp Water Temp Dewpoint Dewpoint Depression Visibility Wind Speed Wind Dir Waves Ship Positions

Akashi

Last reported at 2018-Feb-23 05:25 UTC. Time now 2018-Feb-23 08:53 UTC.
Position N 34°46' E 134°36'.

Length 75 m; draft 5 m.

Type: Cargo ship. MMSI: 431301627.

Date/timePositionNaut miles runAvg speedWind from/ knotsBaromVisibWave heightAir tempDewpointWater temp
2018-Feb-23 05:25N 34°46' E 134°36'1 2.9
2018-Feb-23 04:59N 34°45' E 134°37'511.3
2018-Feb-23 04:30N 34°43' E 134°43'611.8
2018-Feb-23 04:00N 34°39' E 134°49'612.5
2018-Feb-23 03:30N 34°37' E 134°56'612.2
2018-Feb-23 03:00N 34°37' E 135°03'611.3
2018-Feb-23 02:30N 34°37' E 135°10'5 9.7
2018-Feb-23 02:00N 34°39' E 135°15'0 0.8
2018-Feb-23 01:28N 34°39' E 135°15'0 0.0
2018-Feb-23 00:58N 34°39' E 135°15'0 0.0
2018-Feb-23 00:29N 34°39' E 135°15'2 4.2
2018-Feb-23 00:01N 34°41' E 135°16'0 0.9
2018-Feb-22 23:30N 34°41' E 135°17'1 1.7
2018-Feb-22 23:00N 34°41' E 135°16'2 4.0
2018-Feb-22 22:28N 34°39' E 135°15'0 0.0
2018-Feb-22 21:58N 34°39' E 135°15'0 0.0
2018-Feb-22 21:25N 34°39' E 135°15'0 0.0
2018-Feb-22 20:58N 34°39' E 135°15'0 0.1
2018-Feb-22 20:25N 34°38' E 135°15'0 0.0
2018-Feb-22 19:58N 34°38' E 135°15'0 0.0
2018-Feb-22 19:28N 34°38' E 135°15'0 0.0
2018-Feb-22 18:58N 34°38' E 135°15'0 0.0
2018-Feb-22 18:28N 34°38' E 135°15'0 0.0
2018-Feb-22 17:58N 34°38' E 135°15'0 0.0
2018-Feb-22 17:28N 34°38' E 135°15'0 0.0
2018-Feb-22 16:58N 34°38' E 135°15'0 0.0
2018-Feb-22 16:28N 34°38' E 135°15'0 0.0
2018-Feb-22 15:58N 34°38' E 135°15'0 0.0
2018-Feb-22 15:28N 34°38' E 135°15'1 1.4
2018-Feb-22 15:01N 34°38' E 135°15'611.0
2018-Feb-22 14:30N 34°36' E 135°08'510.0
2018-Feb-22 14:01N 34°36' E 135°02'5 9.4
2018-Feb-22 13:30N 34°36' E 134°57'611.4
2018-Feb-22 13:00N 34°34' E 134°50'611.7
2018-Feb-22 12:30N 34°31' E 134°44'611.8
2018-Feb-22 12:00N 34°29' E 134°37'611.9
2018-Feb-22 11:30N 34°27' E 134°30'611.7
2018-Feb-22 10:58N 34°25' E 134°23'911.6
2018-Feb-22 10:10N 34°24' E 134°12'4 0.2
2018-Feb-21 14:20N 34°26' E 134°08'413.2
2018-Feb-21 14:00N 34°25' E 134°13'612.9
2018-Feb-21 13:30N 34°25' E 134°21'612.6
2018-Feb-21 13:00N 34°27' E 134°28'612.5
2018-Feb-21 12:30N 34°29' E 134°35'612.4
2018-Feb-21 12:01N 34°32' E 134°42'612.0
2018-Feb-21 11:31N 34°34' E 134°48'611.7
2018-Feb-21 11:01N 34°36' E 134°55'510.2
2018-Feb-21 10:30N 34°37' E 135°01'5 9.6
2018-Feb-21 10:01N 34°36' E 135°06'611.7
2018-Feb-21 09:30N 34°37' E 135°13'3 5.2
2018-Feb-21 09:00N 34°40' E 135°14'0 0.0
2018-Feb-21 08:30N 34°40' E 135°14'0 0.0
2018-Feb-21 08:00N 34°40' E 135°14'0 0.0
2018-Feb-21 07:30N 34°40' E 135°14'2 4.4
2018-Feb-21 07:00N 34°39' E 135°16'611.7
2018-Feb-21 06:31N 34°38' E 135°23'1 2.9
2018-Feb-21 06:00N 34°38' E 135°25'0 0.0
2018-Feb-21 05:30N 34°38' E 135°25'3 6.0
2018-Feb-21 05:00N 34°39' E 135°22'1 1.7
2018-Feb-21 04:30N 34°39' E 135°21'0 0.0
2018-Feb-21 04:00N 34°39' E 135°21'0 0.0
2018-Feb-21 03:30N 34°39' E 135°21'0 0.0
2018-Feb-21 03:00N 34°39' E 135°21'0 0.1
2018-Feb-21 02:27N 34°39' E 135°21'4 9.0
2018-Feb-21 02:00N 34°38' E 135°16'1 2.5
2018-Feb-21 01:29N 34°39' E 135°15'0 0.0
2018-Feb-21 01:00N 34°39' E 135°15'1 1.1
2018-Feb-21 00:30N 34°40' E 135°15'1 2.4
2018-Feb-20 23:59N 34°41' E 135°15'0 0.0
2018-Feb-20 23:30N 34°41' E 135°15'2 3.8
2018-Feb-20 23:00N 34°39' E 135°15'1 1.3
2018-Feb-20 22:30N 34°39' E 135°15'0 0.0
2018-Feb-20 22:00N 34°39' E 135°15'0 0.0
2018-Feb-20 21:30N 34°39' E 135°15'0 0.0
2018-Feb-20 21:00N 34°39' E 135°15'0 0.1
2018-Feb-20 20:30N 34°39' E 135°15'0 0.0
2018-Feb-20 20:00N 34°39' E 135°15'0 0.1
2018-Feb-20 19:30N 34°39' E 135°15'0 0.0
2018-Feb-20 19:00N 34°39' E 135°15'0 0.1
2018-Feb-20 18:30N 34°39' E 135°15'0 0.0
2018-Feb-20 18:00N 34°39' E 135°15'0 0.0
2018-Feb-20 17:30N 34°39' E 135°15'0 0.1
2018-Feb-20 17:00N 34°39' E 135°15'3 6.7
2018-Feb-20 16:30N 34°37' E 135°11'510.7
2018-Feb-20 16:00N 34°35' E 135°05'5 9.9
2018-Feb-20 15:30N 34°37' E 135°00'510.5
2018-Feb-20 15:00N 34°35' E 134°54'4 9.1
2018-Feb-20 14:30N 34°33' E 134°49'510.1
2018-Feb-20 14:00N 34°31' E 134°43'510.7
2018-Feb-20 13:31N 34°29' E 134°37'510.8
2018-Feb-20 13:00N 34°27' E 134°31'611.0
2018-Feb-20 12:29N 34°25' E 134°25'1110.4
2018-Feb-20 11:26N 34°25' E 134°12'3 0.1
2018-Feb-19 13:02N 34°26' E 134°09'113.6
2018-Feb-19 12:57N 34°25' E 134°10'612.7
2018-Feb-19 12:30N 34°24' E 134°17'612.2
2018-Feb-19 11:59N 34°26' E 134°24'612.1
2018-Feb-19 11:30N 34°28' E 134°31'612.0
2018-Feb-19 11:00N 34°30' E 134°38'611.8
2018-Feb-19 10:30N 34°32' E 134°44'611.6
2018-Feb-19 10:01N 34°35' E 134°51'510.8
2018-Feb-19 09:30N 34°37' E 134°57'4 8.6
2018-Feb-19 09:00N 34°37' E 135°02'5 9.2
2018-Feb-19 08:30N 34°36' E 135°08'611.8
2018-Feb-19 08:00N 34°38' E 135°15'2 4.6
2018-Feb-19 07:30N 34°40' E 135°14'0 0.0
2018-Feb-19 07:01N 34°40' E 135°14'2 3.5
2018-Feb-19 06:30N 34°39' E 135°16'511.0
2018-Feb-19 06:01N 34°38' E 135°23'2 4.0
2018-Feb-19 05:28N 34°38' E 135°25'1 1.5
2018-Feb-19 05:00N 34°37' E 135°24'3 6.2
2018-Feb-19 04:31N 34°39' E 135°21'3 5.6
2018-Feb-19 04:00N 34°41' E 135°18'1 2.4
2018-Feb-19 03:30N 34°41' E 135°17'0 0.0
2018-Feb-19 03:01N 34°41' E 135°17'0 0.4
2018-Feb-19 02:31N 34°41' E 135°16'1 1.7
2018-Feb-19 02:00N 34°40' E 135°15'0 0.0
2018-Feb-19 01:31N 34°40' E 135°15'0 0.3
2018-Feb-19 01:00N 34°40' E 135°16'1 2.9
2018-Feb-19 00:30N 34°39' E 135°15'0 0.0
2018-Feb-19 00:00N 34°39' E 135°15'0 0.0
2018-Feb-18 23:30N 34°39' E 135°15'1 2.7
2018-Feb-18 23:00N 34°41' E 135°14'1 2.6
2018-Feb-18 22:29N 34°41' E 135°13'0 0.0
2018-Feb-18 21:59N 34°41' E 135°13'0 0.0
2018-Feb-18 21:29N 34°41' E 135°13'0 0.0
2018-Feb-18 20:59N 34°41' E 135°13'0 0.0
2018-Feb-18 20:29N 34°41' E 135°13'0 0.0
2018-Feb-18 19:59N 34°41' E 135°13'0 0.0
2018-Feb-18 19:29N 34°41' E 135°13'0 0.0
2018-Feb-18 18:59N 34°41' E 135°13'0 0.0
2018-Feb-18 18:29N 34°41' E 135°13'0 0.0
2018-Feb-18 17:59N 34°41' E 135°13'0 0.0
2018-Feb-18 17:29N 34°41' E 135°13'0 0.0
2018-Feb-18 16:59N 34°41' E 135°13'0 0.0
2018-Feb-18 16:29N 34°41' E 135°13'0 0.0
2018-Feb-18 15:59N 34°41' E 135°13'0 0.0
2018-Feb-18 15:29N 34°41' E 135°13'0 0.0
2018-Feb-18 14:59N 34°41' E 135°13'0 0.0
2018-Feb-18 14:29N 34°41' E 135°13'0 0.0
2018-Feb-18 13:59N 34°41' E 135°13'0 0.0
2018-Feb-18 13:29N 34°41' E 135°13'0 0.0
2018-Feb-18 12:59N 34°41' E 135°13'0 0.0
2018-Feb-18 12:29N 34°41' E 135°13'0 0.0
2018-Feb-18 11:59N 34°41' E 135°13'0 0.0
2018-Feb-18 11:29N 34°41' E 135°13'0 0.0
2018-Feb-18 10:59N 34°41' E 135°13'0 0.0
2018-Feb-18 10:29N 34°41' E 135°13'0 0.0
2018-Feb-18 09:59N 34°41' E 135°13'0 0.0
2018-Feb-18 09:29N 34°41' E 135°13'0 0.0
2018-Feb-18 08:59N 34°41' E 135°13'0 0.0
2018-Feb-18 08:29N 34°41' E 135°13'0 0.0
2018-Feb-18 07:59N 34°41' E 135°13'0 0.0
2018-Feb-18 07:29N 34°41' E 135°13'0 0.0
2018-Feb-18 06:59N 34°41' E 135°13'0 0.0
2018-Feb-18 06:29N 34°41' E 135°13'0 0.0
2018-Feb-18 05:59N 34°41' E 135°13'0 0.0
2018-Feb-18 05:26N 34°41' E 135°13'0 0.0
2018-Feb-18 04:59N 34°41' E 135°13'0 0.0
2018-Feb-18 04:29N 34°41' E 135°13'0 0.0
2018-Feb-18 03:59N 34°41' E 135°13'0 0.0
2018-Feb-18 03:29N 34°41' E 135°13'0 0.0
2018-Feb-18 02:59N 34°41' E 135°13'0 0.0
2018-Feb-18 02:29N 34°41' E 135°13'0 0.8
2018-Feb-18 02:00N 34°41' E 135°13'4 7.3
2018-Feb-18 01:31N 34°38' E 135°15'510.7
2018-Feb-18 01:00N 34°35' E 135°09'5 9.4
2018-Feb-18 00:30N 34°36' E 135°03'3 6.5
2018-Feb-18 00:00N 34°37' E 134°60'4 8.4
2018-Feb-17 23:30N 34°35' E 134°55'4 8.5
2018-Feb-17 23:00N 34°34' E 134°50'510.2
2018-Feb-17 22:30N 34°32' E 134°44'510.7
2018-Feb-17 22:00N 34°30' E 134°38'511.0
2018-Feb-17 21:30N 34°28' E 134°32'611.0
2018-Feb-17 20:58N 34°25' E 134°26'511.0
2018-Feb-17 20:29N 34°24' E 134°19'611.7
2018-Feb-17 19:56N 34°25' E 134°12'8111.4
2018-Feb-17 12:52N 34°01' E 132°38'512.1
2018-Feb-17 12:27N 33°58' E 132°34'1312.2
2018-Feb-17 11:22N 33°50' E 132°21'1511.4
2018-Feb-17 10:05N 33°45' E 132°04'111.2
2018-Feb-17 10:01N 33°45' E 132°03'510.3
2018-Feb-17 09:30N 33°49' E 131°58'810.9
2018-Feb-17 08:45N 33°54' E 131°51'311.0
2018-Feb-17 08:30N 33°56' E 131°48'5 9.5
2018-Feb-17 08:00N 33°60' E 131°45'3 2.8
2018-Feb-17 06:59N 34°02' E 131°47'4 7.8
2018-Feb-17 06:26N 33°58' E 131°45'510.7
2018-Feb-17 05:59N 33°55' E 131°49'1410.4
2018-Feb-17 04:36N 33°46' E 132°03'111.2
2018-Feb-17 04:30N 33°46' E 132°04'811.7
2018-Feb-17 03:51N 33°52' E 132°10'1211.1
2018-Feb-17 02:49N 34°03' E 132°15'412.1
2018-Feb-17 02:28N 34°07' E 132°17'511.3
2018-Feb-17 02:00N 34°12' E 132°16'2 3.4
2018-Feb-17 01:26N 34°13' E 132°15'0 0.0
2018-Feb-17 00:53N 34°13' E 132°15'0 0.0
2018-Feb-17 00:26N 34°13' E 132°15'0 0.0
2018-Feb-16 23:56N 34°13' E 132°15'0 0.0
2018-Feb-16 23:23N 34°13' E 132°15'0 0.0
2018-Feb-16 22:56N 34°13' E 132°15'0 0.0
2018-Feb-16 22:30N 34°13' E 132°15'1 1.6
2018-Feb-16 22:00N 34°13' E 132°16'0 0.0
2018-Feb-16 21:30N 34°13' E 132°16'2 4.0
2018-Feb-16 21:00N 34°12' E 132°17'611.2
2018-Feb-16 20:30N 34°08' E 132°22'911.1
2018-Feb-16 19:41N 34°02' E 132°31'210.7
2018-Feb-16 19:31N 34°02' E 132°33'611.8
2018-Feb-16 18:59N 34°05' E 132°39'7510.7
2018-Feb-16 12:00N 34°32' E 134°04'812.5
2018-Feb-16 11:22N 34°35' E 134°12'612.1
2018-Feb-16 10:54N 34°38' E 134°18'611.7
2018-Feb-16 10:22N 34°41' E 134°25'511.3
2018-Feb-16 09:57N 34°43' E 134°30'511.2
2018-Feb-16 09:30N 34°44' E 134°36'3 1.7
2018-Feb-16 07:49N 34°46' E 134°36'0 0.0
2018-Feb-16 06:53N 34°46' E 134°36'1 2.4
2018-Feb-16 06:29N 34°46' E 134°37'510.7
2018-Feb-16 06:00N 34°43' E 134°42'510.5
2018-Feb-16 05:30N 34°40' E 134°48'5 9.3
2018-Feb-16 05:01N 34°38' E 134°53'4 8.7
2018-Feb-16 04:31N 34°38' E 134°58'5 9.2
2018-Feb-16 04:00N 34°36' E 135°03'510.9
2018-Feb-16 03:30N 34°37' E 135°10'510.3
2018-Feb-16 03:01N 34°39' E 135°15'2 4.0
2018-Feb-16 02:31N 34°41' E 135°17'0 0.0
2018-Feb-16 02:00N 34°41' E 135°17'2 3.8
2018-Feb-16 01:30N 34°40' E 135°15'1 1.0
2018-Feb-16 00:59N 34°39' E 135°15'0 0.0
2018-Feb-16 00:30N 34°39' E 135°15'2 3.6
2018-Feb-16 00:00N 34°41' E 135°16'0 0.0
2018-Feb-15 23:30N 34°41' E 135°16'0 0.3
2018-Feb-15 23:00N 34°41' E 135°15'2 3.6
2018-Feb-15 22:31N 34°39' E 135°15'0 0.0
2018-Feb-15 22:01N 34°39' E 135°15'0 0.0
2018-Feb-15 21:30N 34°39' E 135°15'0 0.0
2018-Feb-15 20:58N 34°39' E 135°15'0 0.0
2018-Feb-15 20:28N 34°39' E 135°15'0 0.0
2018-Feb-15 20:00N 34°39' E 135°15'0 0.0
2018-Feb-15 19:30N 34°39' E 135°15'0 0.1
2018-Feb-15 18:58N 34°39' E 135°15'0 0.0
2018-Feb-15 18:28N 34°39' E 135°15'0 0.0
2018-Feb-15 18:01N 34°39' E 135°15'0 0.1
2018-Feb-15 17:28N 34°39' E 135°15'0 0.1
2018-Feb-15 17:01N 34°39' E 135°15'3 6.7
2018-Feb-15 16:30N 34°37' E 135°12'611.4
2018-Feb-15 16:01N 34°35' E 135°05'713.1
2018-Feb-15 15:31N 34°36' E 134°58'612.6
2018-Feb-15 15:00N 34°34' E 134°51'611.3
2018-Feb-15 14:30N 34°32' E 134°44'510.9
2018-Feb-15 14:01N 34°30' E 134°38'510.6
2018-Feb-15 13:30N 34°28' E 134°32'710.6
2018-Feb-15 12:50N 34°25' E 134°24'13 0.6
2018-Feb-14 14:09N 34°26' E 134°08'210.6
2018-Feb-14 14:00N 34°26' E 134°10'611.0
2018-Feb-14 13:30N 34°24' E 134°16'611.5
2018-Feb-14 13:01N 34°25' E 134°23'612.0
2018-Feb-14 12:30N 34°27' E 134°30'611.8
2018-Feb-14 12:00N 34°30' E 134°36'612.0
2018-Feb-14 11:30N 34°32' E 134°43'612.5
2018-Feb-14 11:00N 34°34' E 134°50'713.2
2018-Feb-14 10:30N 34°37' E 134°57'612.5
2018-Feb-14 10:00N 34°36' E 135°05'611.7
2018-Feb-14 09:30N 34°36' E 135°12'611.5
2018-Feb-14 09:00N 34°37' E 135°19'611.1
2018-Feb-14 08:30N 34°39' E 135°25'1 1.3
2018-Feb-14 07:59N 34°39' E 135°26'0 0.1
2018-Feb-14 07:30N 34°39' E 135°26'2 4.5
2018-Feb-14 07:01N 34°38' E 135°23'611.7
2018-Feb-14 06:30N 34°39' E 135°16'2 3.3
2018-Feb-14 05:59N 34°40' E 135°14'0 0.8
2018-Feb-14 05:30N 34°40' E 135°14'0 0.0
2018-Feb-14 04:59N 34°40' E 135°14'2 4.1
2018-Feb-14 04:30N 34°41' E 135°16'0 0.5
2018-Feb-14 03:55N 34°41' E 135°17'0 0.0
2018-Feb-14 03:28N 34°41' E 135°17'0 0.0
2018-Feb-14 02:58N 34°41' E 135°17'0 0.0
2018-Feb-14 02:28N 34°41' E 135°17'0 0.0
2018-Feb-14 01:59N 34°41' E 135°17'0 0.3
2018-Feb-14 01:31N 34°41' E 135°17'1 2.9
2018-Feb-14 01:00N 34°40' E 135°15'1 2.3
2018-Feb-14 00:30N 34°39' E 135°15'0 0.0
2018-Feb-13 23:59N 34°39' E 135°15'0 0.0
2018-Feb-13 23:29N 34°39' E 135°15'0 0.0
2018-Feb-13 22:59N 34°39' E 135°15'0 0.0
2018-Feb-13 22:29N 34°39' E 135°15'0 0.0
2018-Feb-13 21:59N 34°39' E 135°15'0 0.0
2018-Feb-13 21:29N 34°39' E 135°15'0 0.1
2018-Feb-13 20:59N 34°39' E 135°15'0 0.0
2018-Feb-13 20:29N 34°39' E 135°15'0 0.0
2018-Feb-13 19:59N 34°39' E 135°15'0 0.0
2018-Feb-13 19:29N 34°39' E 135°15'0 0.0
2018-Feb-13 18:59N 34°39' E 135°15'0 0.0
2018-Feb-13 18:29N 34°39' E 135°15'0 0.0
2018-Feb-13 17:59N 34°39' E 135°15'0 0.0
2018-Feb-13 17:29N 34°39' E 135°15'0 0.0
2018-Feb-13 16:59N 34°39' E 135°15'0 0.0
2018-Feb-13 16:29N 34°39' E 135°15'2 4.0
2018-Feb-13 16:00N 34°37' E 135°13'611.9
2018-Feb-13 15:30N 34°35' E 135°07'713.1
2018-Feb-13 15:00N 34°37' E 134°59'713.6
2018-Feb-13 14:31N 34°34' E 134°52'612.4
2018-Feb-13 14:01N 34°32' E 134°45'611.9
2018-Feb-13 13:31N 34°30' E 134°38'611.5
2018-Feb-13 13:01N 34°27' E 134°32'611.5
2018-Feb-13 12:30N 34°25' E 134°25'1011.1
2018-Feb-13 11:34N 34°24' E 134°12'  

Dump ship's entire track history